createdAt,value
2016-08-17T00:03:20.847Z,"    0"
2016-08-17T00:08:18.363Z,"    0"
2016-08-17T00:13:16.128Z,"    0"
2016-08-17T00:18:13.850Z,"    0"
2016-08-17T00:23:11.523Z,"    0"
2016-08-17T00:28:09.008Z,"    0"
2016-08-17T00:33:06.703Z,"    0"
2016-08-17T00:38:04.376Z,"    0"
2016-08-17T00:43:02.007Z,"    0"
2016-08-17T00:47:59.746Z,"    0"
2016-08-17T00:52:57.658Z,"    0"
2016-08-17T00:57:55.282Z,"    0"
2016-08-17T01:02:53.103Z,"    0"
2016-08-17T01:07:51.047Z,"    0"
2016-08-17T01:12:48.662Z,"    0"
2016-08-17T01:17:46.247Z,"    0"
2016-08-17T01:22:43.909Z,"    0"
2016-08-17T01:27:41.758Z,"    0"
2016-08-17T01:32:39.315Z,"    0"
2016-08-17T01:37:37.001Z,"    0"
2016-08-17T01:42:34.821Z,"    0"
2016-08-17T01:47:32.349Z,"    0"
2016-08-17T01:52:29.964Z,"    0"
2016-08-17T01:57:27.642Z,"    0"
2016-08-17T02:02:25.355Z,"    0"
2016-08-17T02:07:23.094Z,"    0"
2016-08-17T02:12:20.942Z,"    0"
2016-08-17T02:17:18.568Z,"    0"
2016-08-17T02:22:16.340Z,"    0"
2016-08-17T02:27:14.624Z,"    0"
2016-08-17T02:32:12.089Z,"    0"
2016-08-17T02:37:10.753Z,"    0"
2016-08-17T02:42:08.246Z,"    0"
2016-08-17T02:47:06.046Z,"    0"
2016-08-17T02:52:03.788Z,"    0"
2016-08-17T02:57:01.787Z,"    0"
2016-08-17T03:01:59.485Z,"    0"
2016-08-17T03:06:57.175Z,"    0"
2016-08-17T03:11:54.950Z,"    0"
2016-08-17T03:16:52.669Z,"    0"
2016-08-17T03:21:50.345Z,"    0"
2016-08-17T03:26:48.073Z,"    0"
2016-08-17T03:31:45.800Z,"    0"
2016-08-17T03:36:43.651Z,"    0"
2016-08-17T03:41:41.248Z,"    0"
2016-08-17T03:46:38.911Z,"    0"
2016-08-17T03:51:36.693Z,"    0"
2016-08-17T03:56:34.451Z,"    0"
2016-08-17T04:01:32.147Z,"    0"
2016-08-17T04:06:29.741Z,"    0"
2016-08-17T04:11:27.452Z,"    4"
2016-08-17T04:16:25.107Z,"    0"
2016-08-17T04:21:22.889Z,"    4"
2016-08-17T04:26:20.526Z,"    4"
2016-08-17T04:31:18.428Z,"    4"
2016-08-17T04:36:16.124Z,"    4"
2016-08-17T04:41:13.808Z,"   12"
2016-08-17T04:46:11.426Z,"   12"
2016-08-17T04:51:09.083Z,"   16"
2016-08-17T04:56:06.909Z,"   16"
2016-08-17T05:01:04.451Z,"   20"
2016-08-17T05:06:02.137Z,"   28"
2016-08-17T05:10:59.820Z,"   24"
2016-08-17T05:15:57.653Z,"   24"
2016-08-17T05:20:55.352Z,"   28"
2016-08-17T05:25:53.375Z,"   84"
2016-08-17T05:30:51.269Z,"  124"
2016-08-17T05:35:49.245Z,"  108"
2016-08-17T05:40:46.960Z,"  100"
2016-08-17T05:45:44.648Z,"   84"
2016-08-17T05:50:42.250Z,"   96"
2016-08-17T05:55:40.088Z,"  112"
2016-08-17T06:00:38.052Z,"  100"
2016-08-17T06:05:35.850Z,"  144"
2016-08-17T06:10:33.765Z,"  200"
2016-08-17T06:15:31.511Z,"  208"
2016-08-17T06:20:29.425Z,"  188"
2016-08-17T06:25:27.231Z,"  144"
2016-08-17T06:30:24.976Z,"   96"
2016-08-17T06:35:22.644Z,"   72"
2016-08-17T06:40:20.173Z,"   52"
2016-08-17T06:45:17.592Z,"   44"
2016-08-17T06:50:15.191Z,"   48"
2016-08-17T06:55:12.840Z,"   48"
2016-08-17T07:00:10.413Z,"   48"
2016-08-17T07:05:07.848Z,"   64"
2016-08-17T07:10:05.607Z,"   52"
2016-08-17T07:15:03.363Z,"   48"
2016-08-17T07:20:01.099Z,"   52"
2016-08-17T07:24:58.866Z,"   44"
2016-08-17T07:29:56.805Z,"   52"
2016-08-17T07:34:54.556Z,"   52"
2016-08-17T07:39:52.202Z,"   52"
2016-08-17T07:44:50.132Z,"   52"
2016-08-17T07:49:47.730Z,"   60"
2016-08-17T07:54:45.384Z,"   60"
2016-08-17T07:59:43.127Z,"   64"
2016-08-17T08:04:40.928Z,"  120"
2016-08-17T08:09:38.938Z,"  420"
2016-08-17T08:14:37.425Z,"  612"
2016-08-17T08:19:35.762Z,"  680"
2016-08-17T08:24:34.110Z,"  736"
2016-08-17T08:29:32.144Z,"  712"
2016-08-17T08:34:30.513Z,"  728"
2016-08-17T08:39:28.445Z,"  688"
2016-08-17T08:44:26.329Z,"  700"
2016-08-17T08:49:24.052Z,"  768"
2016-08-17T08:54:21.756Z,"  908"
2016-08-17T08:59:19.646Z," 1032"
2016-08-17T09:04:17.377Z,"  992"
2016-08-17T09:09:14.811Z,"  912"
2016-08-17T09:14:12.693Z,"  800"
2016-08-17T09:19:10.002Z,"  668"
2016-08-17T09:24:07.672Z,"  520"
2016-08-17T09:29:05.432Z,"  256"
2016-08-17T09:34:02.784Z,"   88"
2016-08-17T09:39:00.400Z,"   80"
2016-08-17T09:43:58.101Z,"   80"
2016-08-17T09:48:55.599Z,"   80"
2016-08-17T09:53:52.997Z,"   80"
2016-08-17T09:58:50.651Z,"   80"
2016-08-17T10:03:48.461Z,"   80"
2016-08-17T10:08:46.112Z,"   80"
2016-08-17T10:13:43.617Z,"   76"
2016-08-17T10:18:41.291Z,"   76"
2016-08-17T10:23:38.975Z,"   76"
2016-08-17T10:28:36.677Z,"   76"
2016-08-17T10:33:34.299Z,"   80"
2016-08-17T10:38:31.940Z,"   76"
2016-08-17T10:43:29.547Z,"   76"
2016-08-17T10:48:27.262Z,"   80"
2016-08-17T10:53:25.076Z,"   80"
2016-08-17T10:58:22.739Z,"   76"
2016-08-17T11:03:20.769Z,"   80"
2016-08-17T11:08:18.381Z,"   80"
2016-08-17T11:13:16.245Z,"   84"
2016-08-17T11:18:13.786Z,"   84"
2016-08-17T11:23:11.291Z,"   84"
2016-08-17T11:28:09.092Z,"   84"
2016-08-17T11:33:07.009Z,"   88"
2016-08-17T11:38:04.691Z,"   88"
2016-08-17T11:43:02.443Z,"   88"
2016-08-17T11:48:00.122Z,"   88"
2016-08-17T11:52:57.776Z,"   88"
2016-08-17T11:57:55.775Z,"   88"
2016-08-17T12:02:53.469Z,"   88"
2016-08-17T12:07:51.211Z,"   88"
2016-08-17T12:12:48.897Z,"   88"
2016-08-17T12:17:46.786Z,"   88"
2016-08-17T12:22:44.500Z,"   84"
2016-08-17T12:27:42.178Z,"   88"
2016-08-17T12:32:39.692Z,"   88"
2016-08-17T12:37:37.449Z,"   88"
2016-08-17T12:42:35.070Z,"   88"
2016-08-17T12:47:32.580Z,"   88"
2016-08-17T12:52:30.259Z,"   92"
2016-08-17T12:57:27.936Z,"   92"
2016-08-17T13:02:25.660Z,"  100"
2016-08-17T13:07:23.510Z,"  108"
2016-08-17T13:12:21.350Z,"  104"
2016-08-17T13:17:19.291Z,"  100"
2016-08-17T13:22:16.987Z,"   92"
2016-08-17T13:27:14.724Z,"   80"
2016-08-17T13:32:12.514Z,"   80"
2016-08-17T13:37:10.137Z,"   76"
2016-08-17T13:42:08.069Z,"   72"
2016-08-17T13:47:05.666Z,"   72"
2016-08-17T13:52:03.368Z,"   68"
2016-08-17T13:57:01.029Z,"   72"
2016-08-17T14:01:58.895Z,"   68"
2016-08-17T14:06:56.458Z,"   76"
2016-08-17T14:11:54.163Z,"   80"
2016-08-17T14:16:51.733Z,"   84"
2016-08-17T14:21:49.593Z,"   88"
2016-08-17T14:26:47.205Z,"   88"
2016-08-17T14:31:45.129Z,"   80"
2016-08-17T14:36:42.768Z,"   72"
2016-08-17T14:41:40.541Z,"   64"
2016-08-17T14:46:38.149Z,"   56"
2016-08-17T14:51:35.881Z,"   52"
2016-08-17T14:56:33.435Z,"   48"
2016-08-17T15:01:31.299Z,"   40"
2016-08-17T15:06:29.028Z,"   40"
2016-08-17T15:11:26.737Z,"   36"
2016-08-17T15:16:24.647Z,"   32"
2016-08-17T15:21:22.283Z,"   36"
2016-08-17T15:26:20.250Z,"   36"
2016-08-17T15:31:17.720Z,"   36"
2016-08-17T15:36:15.706Z,"   32"
2016-08-17T15:41:13.370Z,"   32"
2016-08-17T15:46:11.234Z,"   32"
2016-08-17T15:51:08.888Z,"   32"
2016-08-17T15:56:06.535Z,"   28"
2016-08-17T16:01:04.567Z,"   28"
2016-08-17T16:06:02.171Z,"   28"
2016-08-17T16:10:59.873Z,"   32"
2016-08-17T16:15:57.448Z,"   28"
2016-08-17T16:20:55.074Z,"   28"
2016-08-17T16:25:52.686Z,"   28"
2016-08-17T16:30:50.412Z,"   28"
2016-08-17T16:35:48.326Z,"   28"
2016-08-17T16:40:45.867Z,"   24"
2016-08-17T16:45:43.581Z,"   28"
2016-08-17T16:50:41.497Z,"   28"
2016-08-17T16:55:39.161Z,"   28"
2016-08-17T17:00:36.883Z,"   24"
2016-08-17T17:05:34.575Z,"   24"
2016-08-17T17:10:32.208Z,"   24"
2016-08-17T17:15:29.917Z,"   20"
2016-08-17T17:20:27.635Z,"   20"
2016-08-17T17:25:25.267Z,"   20"
2016-08-17T17:30:23.030Z,"   16"
2016-08-17T17:35:20.638Z,"   16"
2016-08-17T17:40:18.483Z,"   16"
2016-08-17T17:45:16.076Z,"   16"
2016-08-17T17:50:14.007Z,"   16"
2016-08-17T17:55:11.587Z,"   12"
2016-08-17T18:00:09.220Z,"   12"
2016-08-17T18:05:06.906Z,"   12"
2016-08-17T18:10:04.791Z,"   12"
2016-08-17T18:15:02.329Z,"    8"
2016-08-17T18:20:00.089Z,"    8"
2016-08-17T18:24:57.805Z,"    8"
2016-08-17T18:29:55.563Z,"    8"
2016-08-17T18:34:53.271Z,"    4"
2016-08-17T18:39:51.121Z,"    4"
2016-08-17T18:44:48.691Z,"    0"
2016-08-17T18:49:46.352Z,"    4"
2016-08-17T18:54:43.999Z,"    0"
2016-08-17T18:59:41.801Z,"    0"
2016-08-17T19:04:39.484Z,"    0"
2016-08-17T19:09:37.261Z,"    0"
2016-08-17T19:14:35.156Z,"    0"
2016-08-17T19:19:32.921Z,"    0"
2016-08-17T19:24:30.588Z,"    0"
2016-08-17T19:29:28.703Z,"    0"
2016-08-17T19:34:26.283Z,"    0"
2016-08-17T19:39:24.015Z,"    0"
2016-08-17T19:44:21.756Z,"    0"
2016-08-17T19:49:19.327Z,"    0"
2016-08-17T19:54:17.146Z,"    0"
2016-08-17T19:59:14.744Z,"    4"
2016-08-17T20:04:12.552Z,"    4"
2016-08-17T20:09:11.292Z,"    0"
2016-08-17T20:14:08.748Z,"    0"
2016-08-17T20:19:06.546Z,"    0"
2016-08-17T20:24:04.107Z,"    0"
2016-08-17T20:29:01.887Z,"    0"
2016-08-17T20:33:59.852Z,"    0"
2016-08-17T20:38:57.385Z,"    0"
2016-08-17T20:43:55.160Z,"    0"
2016-08-17T20:48:52.706Z,"    0"
2016-08-17T20:53:50.454Z,"    0"
2016-08-17T20:58:48.191Z,"    0"
2016-08-17T21:03:45.884Z,"    0"
2016-08-17T21:08:43.813Z,"    0"
2016-08-17T21:13:41.492Z,"    0"
2016-08-17T21:18:39.047Z,"    0"
2016-08-17T21:23:36.990Z,"    0"
2016-08-17T21:28:34.619Z,"    0"
2016-08-17T21:33:32.223Z,"    0"
2016-08-17T21:38:30.055Z,"    0"
2016-08-17T21:43:27.642Z,"    0"
2016-08-17T21:48:25.592Z,"    0"
2016-08-17T21:53:23.194Z,"    0"
2016-08-17T21:58:20.807Z,"    0"
2016-08-17T22:03:18.507Z,"    0"
2016-08-17T22:08:16.090Z,"    0"
2016-08-17T22:13:13.916Z,"    0"
2016-08-17T22:18:11.654Z,"    0"
2016-08-17T22:23:09.360Z,"    0"
2016-08-17T22:28:07.206Z,"    0"
2016-08-17T22:33:04.801Z,"    0"
2016-08-17T22:38:02.506Z,"    0"
2016-08-17T22:43:00.139Z,"    0"
2016-08-17T22:47:57.932Z,"    0"
2016-08-17T22:52:55.547Z,"    0"
2016-08-17T22:57:53.174Z,"    0"
2016-08-17T23:02:50.979Z,"    0"
2016-08-17T23:07:49.434Z,"    0"
2016-08-17T23:12:46.845Z,"    0"
2016-08-17T23:17:44.525Z,"    0"
2016-08-17T23:22:42.300Z,"    0"
2016-08-17T23:27:40.159Z,"    0"
2016-08-17T23:32:37.979Z,"    0"
2016-08-17T23:37:35.657Z,"    0"
2016-08-17T23:42:33.546Z,"    0"
2016-08-17T23:47:31.208Z,"    0"
2016-08-17T23:52:29.131Z,"    0"
2016-08-17T23:57:26.835Z,"    0"
